Time;durP1;ratioP1;P1;durP2;ratioP2;P2;SDS_P1;SDS_P2;PMS_P1;PMS_P2;Temp;Humidity;BMP_temperature;BMP_pressure;BME280_temperature;BME280_humidity;BME280_pressure;Samples;Min_cycle;Max_cycle;Signal;HPM_P1;HPM_P2
2022/09/10 00:01:50;;;;;;;12.73;8.77;;;15.90;99.90;;;;;;5032052;28;20471;-69
2022/09/10 00:04:16;;;;;;;11.80;8.20;;;15.90;99.90;;;;;;5029445;28;20132;-68
2022/09/10 00:06:43;;;;;;;13.43;9.32;;;15.90;99.90;;;;;;5031580;28;20048;-68
2022/09/10 00:09:09;;;;;;;10.68;9.20;;;15.90;99.90;;;;;;5031830;28;20037;-69
2022/09/10 00:11:37;;;;;;;10.73;9.20;;;15.90;99.90;;;;;;5031799;28;20041;-69
2022/09/10 00:14:05;;;;;;;15.10;9.68;;;15.90;99.90;;;;;;5031639;28;20091;-69
2022/09/10 00:16:31;;;;;;;11.90;9.30;;;15.90;99.90;;;;;;5030227;28;20052;-69
2022/09/10 00:18:59;;;;;;;11.55;9.70;;;15.80;99.90;;;;;;5030326;28;20503;-69
2022/09/10 00:21:25;;;;;;;15.75;9.40;;;15.90;99.90;;;;;;5031524;28;20092;-69
2022/09/10 00:23:51;;;;;;;13.10;9.32;;;15.90;99.90;;;;;;5031499;28;20124;-69
2022/09/10 00:26:22;;;;;;;11.20;9.70;;;15.90;99.90;;;;;;5013861;28;20048;-68
2022/09/10 00:28:50;;;;;;;14.77;10.00;;;15.80;99.90;;;;;;5030422;28;20033;-69
2022/09/10 00:31:17;;;;;;;15.50;10.02;;;15.90;99.90;;;;;;5030536;28;20507;-69
2022/09/10 00:33:43;;;;;;;15.60;10.32;;;15.90;99.90;;;;;;5031335;28;20057;-69
2022/09/10 00:36:17;;;;;;;14.95;9.88;;;15.80;99.90;;;;;;5030078;28;20037;-69
2022/09/10 00:38:42;;;;;;;16.20;10.32;;;15.90;99.90;;;;;;5031614;28;20052;-69
2022/09/10 00:41:08;;;;;;;17.38;11.35;;;15.80;99.90;;;;;;5031769;28;20510;-69
2022/09/10 00:43:53;;;;;;;14.02;10.70;;;15.90;99.90;;;;;;5031321;28;20041;-69
2022/09/10 00:46:46;;;;;;;15.77;9.98;;;15.90;99.90;;;;;;5031318;28;20045;-69
2022/09/10 00:49:29;;;;;;;14.23;10.18;;;15.90;99.90;;;;;;5028415;28;20515;-69
2022/09/10 00:51:55;;;;;;;13.85;10.00;;;15.80;99.90;;;;;;5031281;28;20484;-69
2022/09/10 00:54:24;;;;;;;16.98;11.05;;;15.80;99.90;;;;;;5029874;28;20048;-69
2022/09/10 00:56:52;;;;;;;15.15;10.43;;;15.90;99.90;;;;;;5030017;28;20049;-69
2022/09/10 00:59:21;;;;;;;13.70;10.70;;;15.90;99.90;;;;;;5032703;28;20045;-69
2022/09/10 01:01:48;;;;;;;14.85;11.38;;;15.80;99.90;;;;;;5034172;28;20041;-68
2022/09/10 01:04:14;;;;;;;15.30;11.50;;;15.80;99.90;;;;;;5033642;28;20045;-69
2022/09/10 01:06:40;;;;;;;13.73;11.27;;;15.90;99.90;;;;;;5035153;28;20510;-69
2022/09/10 01:09:07;;;;;;;15.60;11.52;;;15.80;99.90;;;;;;5035087;28;20100;-69
2022/09/10 01:12:00;;;;;;;18.27;11.60;;;15.80;99.90;;;;;;5035044;28;20034;-69
2022/09/10 01:14:55;;;;;;;15.57;10.90;;;15.80;99.90;;;;;;5034692;28;20044;-69
2022/09/10 01:17:50;;;;;;;17.50;11.75;;;15.90;99.90;;;;;;5034917;28;20047;-69
2022/09/10 01:20:33;;;;;;;14.40;10.88;;;15.80;99.90;;;;;;5035054;28;20042;-68
2022/09/10 01:23:30;;;;;;;19.48;12.20;;;15.90;99.90;;;;;;5034851;28;20491;-69
2022/09/10 01:26:04;;;;;;;15.75;11.35;;;15.80;99.90;;;;;;5034521;28;20048;-69
2022/09/10 01:28:37;;;;;;;14.32;12.15;;;15.90;99.90;;;;;;5034969;28;20407;-69
2022/09/10 01:31:10;;;;;;;16.13;11.68;;;15.80;99.90;;;;;;5034811;28;20448;-69
2022/09/10 01:33:51;;;;;;;15.98;10.60;;;15.90;99.90;;;;;;5034662;28;20376;-69
2022/09/10 01:36:23;;;;;;;15.38;11.18;;;15.80;99.90;;;;;;5034557;28;20050;-69
2022/09/10 01:38:50;;;;;;;15.82;12.00;;;15.80;99.90;;;;;;5034636;28;20518;-68
2022/09/10 01:41:16;;;;;;;15.68;11.60;;;15.90;99.90;;;;;;5034689;28;20120;-69
2022/09/10 01:43:42;;;;;;;14.80;11.00;;;15.80;99.90;;;;;;5034338;28;20232;-69
2022/09/10 01:46:18;;;;;;;15.63;11.80;;;15.80;99.90;;;;;;5034291;28;20085;-69
2022/09/10 01:48:59;;;;;;;18.70;11.50;;;15.80;99.90;;;;;;5033135;28;20045;-69
2022/09/10 01:51:42;;;;;;;14.55;11.13;;;15.80;99.90;;;;;;5034497;28;20120;-68
2022/09/10 01:54:35;;;;;;;15.80;11.10;;;15.90;99.90;;;;;;5033986;28;20496;-69
2022/09/10 01:57:23;;;;;;;16.88;10.98;;;15.90;99.90;;;;;;5034138;28;20098;-69
2022/09/10 01:59:55;;;;;;;16.45;11.38;;;15.90;99.90;;;;;;5032962;28;20046;-69
2022/09/10 02:02:25;;;;;;;16.88;11.13;;;15.90;99.90;;;;;;5034041;28;20046;-69
2022/09/10 02:04:53;;;;;;;15.52;11.60;;;15.90;99.90;;;;;;5032605;28;20042;-69
2022/09/10 02:07:22;;;;;;;16.17;10.98;;;15.90;99.90;;;;;;5033866;28;20557;-69
2022/09/10 02:09:49;;;;;;;21.42;11.80;;;15.90;99.90;;;;;;5032887;28;20046;-69
2022/09/10 02:12:20;;;;;;;14.50;11.57;;;15.80;99.90;;;;;;5032931;28;20042;-69
2022/09/10 02:14:55;;;;;;;18.10;11.38;;;15.90;99.90;;;;;;5032603;28;20041;-69
2022/09/10 02:17:25;;;;;;;18.05;11.77;;;15.90;99.90;;;;;;5032490;28;20053;-69
2022/09/10 02:19:52;;;;;;;14.70;11.65;;;15.90;99.90;;;;;;5034038;28;20045;-69
2022/09/10 02:22:22;;;;;;;16.42;11.60;;;15.90;99.90;;;;;;5032513;28;20099;-69
2022/09/10 02:24:48;;;;;;;22.20;12.20;;;15.90;99.90;;;;;;5032158;28;20123;-69
2022/09/10 02:27:14;;;;;;;16.17;11.13;;;15.90;99.90;;;;;;5032457;28;20077;-69
2022/09/10 02:29:40;;;;;;;17.75;11.88;;;15.90;99.90;;;;;;5033613;28;20041;-69
2022/09/10 02:32:07;;;;;;;14.48;12.10;;;15.90;99.90;;;;;;5033566;28;20561;-69
2022/09/10 02:34:33;;;;;;;17.27;11.60;;;15.90;99.90;;;;;;5032143;28;20047;-69
2022/09/10 02:36:59;;;;;;;18.48;12.52;;;15.80;99.90;;;;;;5033675;28;20099;-69
2022/09/10 02:39:24;;;;;;;20.58;13.32;;;15.80;99.90;;;;;;5033493;28;20049;-69
2022/09/10 02:41:50;;;;;;;16.83;11.73;;;15.80;99.90;;;;;;5033387;28;20579;-69
2022/09/10 02:44:16;;;;;;;19.25;12.27;;;15.80;99.90;;;;;;5033006;28;20114;-69
2022/09/10 02:46:43;;;;;;;22.98;12.45;;;15.80;99.90;;;;;;5032300;28;20041;-69
2022/09/10 02:49:08;;;;;;;24.90;13.45;;;15.80;99.90;;;;;;5031973;28;20095;-69
2022/09/10 02:51:35;;;;;;;19.13;13.15;;;15.80;99.90;;;;;;5033186;28;20037;-69
2022/09/10 02:54:01;;;;;;;19.88;13.27;;;15.80;99.90;;;;;;5015463;28;20057;-69
2022/09/10 02:56:27;;;;;;;25.17;12.68;;;15.90;99.90;;;;;;5033200;28;20041;-69
2022/09/10 02:58:53;;;;;;;17.40;12.05;;;15.80;99.90;;;;;;5033021;28;20044;-69
2022/09/10 03:01:19;;;;;;;22.38;12.60;;;15.80;99.90;;;;;;5033117;28;20402;-68
2022/09/10 03:03:59;;;;;;;17.38;12.63;;;15.90;99.90;;;;;;5032629;28;20038;-69
2022/09/10 03:06:26;;;;;;;17.95;12.27;;;15.80;99.90;;;;;;5031611;28;20131;-69
2022/09/10 03:08:54;;;;;;;21.08;12.65;;;15.80;99.90;;;;;;5032932;28;20423;-69
2022/09/10 03:11:22;;;;;;;20.73;12.50;;;15.90;99.90;;;;;;5032794;28;20033;-69
2022/09/10 03:13:49;;;;;;;16.13;12.23;;;15.80;99.90;;;;;;5032413;28;20515;-69
2022/09/10 03:16:15;;;;;;;25.35;13.18;;;15.90;99.90;;;;;;5032807;28;20077;-69
2022/09/10 03:18:42;;;;;;;15.40;12.10;;;15.80;99.90;;;;;;5032754;28;20079;-69
2022/09/10 03:21:17;;;;;;;18.88;12.38;;;15.90;99.90;;;;;;5031433;28;20045;-69
2022/09/10 03:23:44;;;;;;;19.60;12.95;;;15.90;99.90;;;;;;5032165;28;20041;-69
2022/09/10 03:26:10;;;;;;;18.50;13.30;;;15.90;99.90;;;;;;5014928;28;20108;-69
2022/09/10 03:28:37;;;;;;;22.90;13.35;;;15.90;99.90;;;;;;5031489;28;20052;-69
2022/09/10 03:31:03;;;;;;;21.27;13.32;;;15.90;99.90;;;;;;5032656;28;20037;-69
2022/09/10 03:33:29;;;;;;;18.17;12.75;;;16.00;99.90;;;;;;5030999;28;20045;-69
2022/09/10 03:35:55;;;;;;;20.73;13.20;;;15.90;99.90;;;;;;5032222;28;20049;-69
2022/09/10 03:38:22;;;;;;;23.10;14.05;;;15.90;99.90;;;;;;5031029;28;20047;-69
2022/09/10 03:40:48;;;;;;;22.70;14.18;;;15.90;99.90;;;;;;5031016;28;20049;-69
2022/09/10 03:43:14;;;;;;;19.80;13.80;;;15.90;99.90;;;;;;5030936;28;20037;-69
2022/09/10 03:45:39;;;;;;;22.25;13.52;;;15.90;99.90;;;;;;5031960;28;20091;-69
2022/09/10 03:48:05;;;;;;;26.17;13.85;;;16.00;99.90;;;;;;5030833;28;20033;-69
2022/09/10 03:50:31;;;;;;;23.88;13.32;;;15.90;99.90;;;;;;5030891;28;20187;-69
2022/09/10 03:52:56;;;;;;;22.23;13.45;;;15.90;99.90;;;;;;5031996;28;20120;-69
2022/09/10 03:55:22;;;;;;;21.27;13.68;;;15.90;99.90;;;;;;5031726;28;20044;-69
2022/09/10 03:57:48;;;;;;;21.60;13.77;;;16.00;99.90;;;;;;5032051;28;20041;-69
2022/09/10 04:00:14;;;;;;;24.40;14.23;;;15.90;99.90;;;;;;5030731;28;20038;-69
2022/09/10 04:02:40;;;;;;;21.30;14.18;;;15.90;99.90;;;;;;5031869;28;20041;-69
2022/09/10 04:05:07;;;;;;;18.90;13.32;;;15.90;99.90;;;;;;5031606;28;20510;-69
2022/09/10 04:07:33;;;;;;;23.95;13.88;;;15.90;99.90;;;;;;5031767;28;20045;-69
2022/09/10 04:09:59;;;;;;;22.55;13.57;;;15.90;99.90;;;;;;5031790;28;20117;-69
2022/09/10 04:12:25;;;;;;;21.88;13.88;;;15.90;99.90;;;;;;5032072;28;20037;-69
2022/09/10 04:14:52;;;;;;;22.10;13.73;;;15.90;99.90;;;;;;5030559;28;20150;-69
2022/09/10 04:17:17;;;;;;;20.65;14.02;;;15.90;99.90;;;;;;5029920;28;20507;-69
2022/09/10 04:19:43;;;;;;;21.00;14.25;;;16.00;99.90;;;;;;5031714;28;20099;-69
2022/09/10 04:22:09;;;;;;;20.75;13.05;;;15.90;99.90;;;;;;5031838;28;20092;-69
2022/09/10 04:24:35;;;;;;;20.10;13.48;;;15.90;99.90;;;;;;5030145;28;20045;-69
2022/09/10 04:27:00;;;;;;;28.58;14.40;;;15.90;99.90;;;;;;5031580;28;20388;-69
2022/09/10 04:29:26;;;;;;;26.63;13.35;;;15.90;99.90;;;;;;5031709;28;20487;-69
2022/09/10 04:31:54;;;;;;;22.90;13.57;;;15.90;99.90;;;;;;5030078;28;20038;-68
2022/09/10 04:34:21;;;;;;;25.33;14.18;;;15.90;99.90;;;;;;5034453;28;20041;-69
2022/09/10 04:36:48;;;;;;;26.00;13.88;;;15.90;99.90;;;;;;5038368;28;20049;-69
2022/09/10 04:39:15;;;;;;;24.67;13.85;;;16.00;99.90;;;;;;5038198;28;20072;-68
2022/09/10 04:41:41;;;;;;;25.45;14.88;;;16.00;99.90;;;;;;5038146;28;20515;-69
2022/09/10 04:44:06;;;;;;;26.88;16.23;;;15.90;99.90;;;;;;5037759;28;20132;-68
2022/09/10 04:46:32;;;;;;;27.75;16.27;;;15.90;99.90;;;;;;5037870;28;20045;-69
2022/09/10 04:48:58;;;;;;;27.92;15.55;;;15.90;99.90;;;;;;5038256;28;20037;-69
2022/09/10 04:51:24;;;;;;;27.70;14.85;;;15.90;99.90;;;;;;5038190;28;20167;-69
2022/09/10 04:53:49;;;;;;;25.63;15.73;;;15.90;99.90;;;;;;5037817;28;20116;-69
2022/09/10 04:56:16;;;;;;;26.25;16.30;;;16.00;99.90;;;;;;5037050;28;20121;-69
2022/09/10 04:58:42;;;;;;;30.65;17.33;;;16.00;99.90;;;;;;5020535;28;20259;-69
2022/09/10 05:01:09;;;;;;;27.25;16.00;;;16.00;99.90;;;;;;5036861;28;20399;-68
2022/09/10 05:03:35;;;;;;;30.38;17.73;;;16.00;99.90;;;;;;5038064;28;20046;-69
2022/09/10 05:06:01;;;;;;;29.55;16.85;;;15.90;99.90;;;;;;5037680;28;20041;-69
2022/09/10 05:08:26;;;;;;;30.50;17.88;;;15.90;99.90;;;;;;5038021;28;20033;-69
2022/09/10 05:10:52;;;;;;;39.47;18.98;;;15.90;99.90;;;;;;5037933;28;20037;-69
2022/09/10 05:13:17;;;;;;;30.30;18.23;;;16.00;99.90;;;;;;5037800;28;20392;-69
2022/09/10 05:15:44;;;;;;;32.80;19.35;;;16.00;99.90;;;;;;5037266;28;20034;-69
2022/09/10 05:18:10;;;;;;;29.75;18.45;;;16.00;99.90;;;;;;5034825;28;20042;-69
2022/09/10 05:20:36;;;;;;;32.05;19.55;;;16.00;99.90;;;;;;5035029;28;20034;-69
2022/09/10 05:23:02;;;;;;;33.30;17.58;;;15.90;99.90;;;;;;5035311;28;20582;-68
2022/09/10 05:25:27;;;;;;;46.90;19.45;;;15.90;99.90;;;;;;5036291;28;20456;-68
2022/09/10 05:27:54;;;;;;;34.83;18.70;;;15.90;99.90;;;;;;5037155;28;20048;-69
2022/09/10 05:30:19;;;;;;;33.22;19.85;;;16.00;99.90;;;;;;5035765;28;20041;-69
2022/09/10 05:32:46;;;;;;;33.17;19.10;;;16.00;99.90;;;;;;5036385;28;20113;-69
2022/09/10 05:35:12;;;;;;;32.55;18.48;;;16.00;99.90;;;;;;5036924;28;20067;-69
2022/09/10 05:37:37;;;;;;;35.50;19.80;;;16.00;99.90;;;;;;5036877;28;20116;-69
2022/09/10 05:40:05;;;;;;;35.92;19.48;;;16.00;99.90;;;;;;5035731;28;20150;-69
2022/09/10 05:42:31;;;;;;;31.48;19.80;;;16.00;99.90;;;;;;5036519;28;20175;-69
2022/09/10 05:44:57;;;;;;;31.40;19.67;;;16.00;99.90;;;;;;5036639;28;20054;-69
2022/09/10 05:47:22;;;;;;;35.55;19.70;;;16.00;99.90;;;;;;5034563;28;20048;-69
2022/09/10 05:49:48;;;;;;;39.28;20.08;;;16.00;99.90;;;;;;5033137;28;20037;-69
2022/09/10 05:52:14;;;;;;;37.20;19.65;;;16.00;99.90;;;;;;5033002;28;20059;-70
2022/09/10 05:54:40;;;;;;;32.72;19.05;;;16.00;99.90;;;;;;5034095;28;20033;-69
2022/09/10 05:57:06;;;;;;;34.67;18.98;;;16.00;99.90;;;;;;5034249;28;20051;-69
2022/09/10 05:59:33;;;;;;;40.15;19.77;;;16.00;99.90;;;;;;5034085;28;20056;-69
2022/09/10 06:01:59;;;;;;;34.83;19.38;;;16.00;99.90;;;;;;5034142;28;20087;-69
2022/09/10 06:04:25;;;;;;;35.28;19.50;;;16.10;99.90;;;;;;5033821;28;20380;-69
2022/09/10 06:06:50;;;;;;;41.65;20.00;;;16.10;99.90;;;;;;5032854;28;20091;-70
2022/09/10 06:09:18;;;;;;;40.78;19.90;;;16.10;99.90;;;;;;5034031;28;20034;-69
2022/09/10 06:11:46;;;;;;;37.55;20.42;;;16.10;99.90;;;;;;5033005;28;20098;-69
2022/09/10 06:14:13;;;;;;;35.90;18.95;;;16.10;99.90;;;;;;5033574;28;20041;-69
2022/09/10 06:16:39;;;;;;;38.40;20.58;;;16.10;99.90;;;;;;5032894;28;20083;-70
2022/09/10 06:19:04;;;;;;;32.80;18.80;;;16.10;99.90;;;;;;5033980;28;20079;-70
2022/09/10 06:21:30;;;;;;;31.60;18.98;;;16.20;99.90;;;;;;5033990;28;20400;-70
2022/09/10 06:23:56;;;;;;;33.03;19.33;;;16.10;99.90;;;;;;5032088;28;20114;-69
2022/09/10 06:26:22;;;;;;;30.42;18.27;;;16.20;99.90;;;;;;5033651;28;20527;-68
2022/09/10 06:28:48;;;;;;;37.15;19.60;;;16.20;99.90;;;;;;5032381;28;20040;-68
2022/09/10 06:31:16;;;;;;;33.92;19.88;;;16.20;99.90;;;;;;5032405;28;20111;-68
2022/09/10 06:33:43;;;;;;;32.70;18.05;;;16.20;99.90;;;;;;5033450;28;20042;-68
2022/09/10 06:36:09;;;;;;;37.03;18.30;;;16.20;99.90;;;;;;5033532;28;20045;-68
2022/09/10 06:38:35;;;;;;;35.05;19.10;;;16.20;99.90;;;;;;5033496;28;20045;-68
2022/09/10 06:41:04;;;;;;;36.53;18.63;;;16.30;99.90;;;;;;5033320;28;20077;-68
2022/09/10 06:43:35;;;;;;;36.25;19.33;;;16.30;99.90;;;;;;5032093;28;20041;-68
2022/09/10 06:46:08;;;;;;;40.10;19.65;;;16.40;99.90;;;;;;5015261;28;20045;-68
2022/09/10 06:48:38;;;;;;;;;;;16.40;99.90;;;;;;5032717;28;20041;-68
2022/09/10 06:51:04;;;;;;;33.88;18.42;;;16.40;99.90;;;;;;5032277;28;20352;-69
2022/09/10 06:53:32;;;;;;;30.52;18.23;;;16.40;99.90;;;;;;5033097;28;20037;-68
2022/09/10 06:55:59;;;;;;;39.45;19.02;;;16.40;99.90;;;;;;5033102;28;20052;-68
2022/09/10 06:58:26;;;;;;;30.35;17.40;;;16.40;99.90;;;;;;5032694;28;20094;-68
2022/09/10 07:00:51;;;;;;;33.38;18.50;;;16.40;99.90;;;;;;5033028;28;20645;-68
2022/09/10 07:03:19;;;;;;;33.95;18.58;;;16.40;99.90;;;;;;5031575;28;20133;-68
2022/09/10 07:05:45;;;;;;;32.35;17.92;;;16.40;99.90;;;;;;5032673;28;20068;-68
2022/09/10 07:08:16;;;;;;;33.10;18.15;;;16.50;99.90;;;;;;5031644;28;20388;-68
2022/09/10 07:10:43;;;;;;;28.55;17.80;;;16.50;99.90;;;;;;5031691;28;20108;-69
2022/09/10 07:13:09;;;;;;;31.02;18.00;;;16.50;99.90;;;;;;5032886;28;20368;-69
2022/09/10 07:15:35;;;;;;;34.88;18.30;;;16.50;99.90;;;;;;5032521;28;20168;-69
2022/09/10 07:18:02;;;;;;;30.45;17.65;;;16.50;99.90;;;;;;5032778;28;20531;-69
2022/09/10 07:20:28;;;;;;;30.13;17.27;;;16.50;99.90;;;;;;5032686;28;20116;-68
2022/09/10 07:22:58;;;;;;;32.58;18.25;;;16.60;99.90;;;;;;5032474;28;20120;-69
2022/09/10 07:25:25;;;;;;;28.23;16.85;;;16.50;99.90;;;;;;5032547;28;20111;-68
2022/09/10 07:27:51;;;;;;;27.63;15.50;;;16.60;99.90;;;;;;5030180;28;20064;-69
2022/09/10 07:30:18;;;;;;;26.00;16.45;;;16.60;99.90;;;;;;5032049;28;20500;-69
2022/09/10 07:32:45;;;;;;;25.88;13.82;;;16.60;99.90;;;;;;5031242;28;20040;-68
2022/09/10 07:35:11;;;;;;;24.05;15.98;;;16.70;99.90;;;;;;5032062;28;20033;-68
2022/09/10 07:37:38;;;;;;;27.60;15.90;;;16.70;99.90;;;;;;5032726;28;20053;-68
2022/09/10 07:40:04;;;;;;;30.23;16.23;;;16.70;99.90;;;;;;5032543;28;20072;-68
2022/09/10 07:42:29;;;;;;;25.08;15.68;;;16.70;99.90;;;;;;5032431;28;20486;-68
2022/09/10 07:44:55;;;;;;;26.20;16.02;;;16.70;99.90;;;;;;5030945;28;20124;-68
2022/09/10 07:47:20;;;;;;;33.38;15.65;;;16.70;99.90;;;;;;5032321;28;20042;-68
2022/09/10 07:49:46;;;;;;;25.90;15.80;;;16.80;99.90;;;;;;5032399;28;20110;-68
2022/09/10 07:52:12;;;;;;;23.60;15.10;;;16.80;99.90;;;;;;5030910;28;20120;-68
2022/09/10 07:54:38;;;;;;;25.95;16.20;;;16.80;99.90;;;;;;5031972;28;20403;-68
2022/09/10 07:57:04;;;;;;;23.40;15.43;;;16.70;99.90;;;;;;5032237;28;20037;-68
2022/09/10 07:59:30;;;;;;;26.27;15.88;;;16.80;99.90;;;;;;5032029;28;20546;-68
2022/09/10 08:01:58;;;;;;;30.85;15.48;;;16.80;99.90;;;;;;5031870;28;20108;-68
2022/09/10 08:04:24;;;;;;;29.55;15.57;;;16.80;99.90;;;;;;5030525;28;20403;-67
2022/09/10 08:06:50;;;;;;;28.90;15.85;;;17.00;99.90;;;;;;5030557;28;20049;-68
2022/09/10 08:09:18;;;;;;;32.30;16.02;;;17.00;99.90;;;;;;5030020;28;20029;-68
2022/09/10 08:11:43;;;;;;;22.33;14.98;;;17.10;99.90;;;;;;5030545;28;20045;-68
2022/09/10 08:14:09;;;;;;;25.95;14.60;;;17.20;99.90;;;;;;5031609;28;20507;-68
2022/09/10 08:16:35;;;;;;;25.15;14.75;;;17.20;99.90;;;;;;5030799;28;20065;-69
2022/09/10 08:19:01;;;;;;;23.50;15.18;;;17.30;99.90;;;;;;5030431;28;20041;-68
2022/09/10 08:21:30;;;;;;;26.10;14.25;;;17.40;99.90;;;;;;5013996;28;20037;-68
2022/09/10 08:23:56;;;;;;;25.88;14.63;;;17.40;99.90;;;;;;5030534;28;20172;-68
2022/09/10 08:26:24;;;;;;;22.30;13.93;;;17.40;99.90;;;;;;5031680;28;20132;-68
2022/09/10 08:28:50;;;;;;;23.38;13.93;;;17.50;99.90;;;;;;5030652;28;20040;-68
2022/09/10 08:31:16;;;;;;;25.65;13.73;;;17.50;99.90;;;;;;5030726;28;20399;-69
2022/09/10 08:33:47;;;;;;;22.25;14.10;;;17.50;99.90;;;;;;5031311;28;20045;-68
2022/09/10 08:36:15;;;;;;;28.83;14.85;;;17.60;99.90;;;;;;5031563;28;20073;-68
2022/09/10 08:38:41;;;;;;;25.33;13.95;;;17.60;99.90;;;;;;5031614;28;20045;-68
2022/09/10 08:41:37;;;;;;;24.77;14.40;;;17.60;99.90;;;;;;5031593;28;20120;-68
2022/09/10 08:44:15;;;;;;;24.92;14.45;;;17.60;99.90;;;;;;5031140;28;20088;-68
2022/09/10 08:47:09;;;;;;;21.60;13.15;;;17.60;99.90;;;;;;5031630;28;20038;-68
2022/09/10 08:49:48;;;;;;;17.58;12.95;;;17.70;99.90;;;;;;5005588;28;20049;-68
2022/09/10 08:52:19;;;;;;;21.13;12.77;;;17.80;99.90;;;;;;5031370;28;20483;-67
2022/09/10 08:54:54;;;;;;;17.92;12.00;;;18.00;99.90;;;;;;5031355;28;20407;-68
2022/09/10 08:57:31;;;;;;;19.13;13.55;;;18.10;99.90;;;;;;5031408;28;20041;-68
2022/09/10 08:59:59;;;;;;;16.17;12.18;;;18.20;99.90;;;;;;5030049;28;20103;-68
2022/09/10 09:02:44;;;;;;;18.48;12.35;;;18.30;99.90;;;;;;5031273;28;20042;-68
2022/09/10 09:05:24;;;;;;;21.15;13.27;;;18.30;99.90;;;;;;5031318;28;20041;-68
2022/09/10 09:07:51;;;;;;;16.95;12.30;;;18.20;99.90;;;;;;5030193;28;20406;-68
2022/09/10 09:10:39;;;;;;;20.33;12.38;;;18.30;99.90;;;;;;5031314;28;20142;-68
2022/09/10 09:13:27;;;;;;;18.98;12.18;;;18.20;99.90;;;;;;5031186;28;20503;-68
2022/09/10 09:16:20;;;;;;;18.90;13.48;;;18.40;99.90;;;;;;5031308;28;20430;-68
2022/09/10 09:18:45;;;;;;;19.85;12.25;;;18.30;99.90;;;;;;5031428;28;20037;-68
2022/09/10 09:21:16;;;;;;;16.35;12.35;;;18.40;99.90;;;;;;5032618;28;20144;-68
2022/09/10 09:23:54;;;;;;;22.88;14.02;;;18.40;99.90;;;;;;5033409;28;20053;-67
2022/09/10 09:26:44;;;;;;;18.98;13.35;;;18.50;99.90;;;;;;5017146;28;20042;-68
2022/09/10 09:29:18;;;;;;;18.05;11.57;;;18.40;99.90;;;;;;5034670;28;20487;-68
2022/09/10 09:31:48;;;;;;;16.38;12.88;;;18.60;99.90;;;;;;5034863;28;20087;-68
2022/09/10 09:34:31;;;;;;;16.60;11.30;;;18.50;99.90;;;;;;5033518;28;20388;-68
2022/09/10 09:36:59;;;;;;;;;;;18.50;99.90;;;;;;5034263;28;20060;-68
2022/09/10 09:39:36;;;;;;;12.40;7.00;;;18.40;99.90;;;;;;5034753;28;19917;-68
2022/09/10 09:42:21;;;;;;;12.32;8.68;;;18.50;99.90;;;;;;5034731;28;20578;-68
2022/09/10 09:45:01;;;;;;;17.45;9.35;;;18.50;99.90;;;;;;5034576;28;20041;-68
2022/09/10 09:47:26;;;;;;;18.00;9.45;;;18.60;99.90;;;;;;5034703;28;20091;-68
2022/09/10 09:49:52;;;;;;;16.33;10.63;;;18.60;99.90;;;;;;5033330;28;20077;-67
2022/09/10 09:52:21;;;;;;;15.07;10.32;;;18.60;99.90;;;;;;5033172;28;20045;-67
2022/09/10 09:55:00;;;;;;;16.20;10.15;;;18.60;99.90;;;;;;5034030;28;20056;-67
2022/09/10 09:57:26;;;;;;;11.13;9.00;;;18.60;99.90;;;;;;5034598;28;20049;-67
2022/09/10 09:59:52;;;;;;;14.45;10.10;;;18.60;99.90;;;;;;5033127;28;20083;-67
2022/09/10 10:02:21;;;;;;;15.00;9.75;;;18.60;99.90;;;;;;5034273;28;20038;-67
2022/09/10 10:05:02;;;;;;;12.45;8.68;;;18.60;99.90;;;;;;5033975;28;20037;-67
2022/09/10 10:07:31;;;;;;;12.68;9.93;;;18.70;99.90;;;;;;5034276;28;20115;-67
2022/09/10 10:10:01;;;;;;;17.35;11.57;;;18.80;99.90;;;;;;5034485;28;20408;-68
2022/09/10 10:12:32;;;;;;;12.43;9.82;;;18.80;99.90;;;;;;5032964;28;20073;-67
2022/09/10 10:14:58;;;;;;;13.40;7.07;;;18.80;99.90;;;;;;5033905;28;20033;-67
2022/09/10 10:17:29;;;;;;;15.20;7.40;;;18.90;99.90;;;;;;5034022;28;20041;-67
2022/09/10 10:19:57;;;;;;;7.53;5.32;;;18.80;99.90;;;;;;5032952;28;20045;-67
2022/09/10 10:22:29;;;;;;;8.45;5.10;;;18.90;99.90;;;;;;5015417;28;20048;-68
2022/09/10 10:24:55;;;;;;;7.55;4.70;;;18.80;99.90;;;;;;5032370;28;20045;-67
2022/09/10 10:27:41;;;;;;;11.85;6.93;;;18.80;99.90;;;;;;5033883;28;20125;-67
2022/09/10 10:30:15;;;;;;;22.30;6.85;;;18.80;99.90;;;;;;5033823;28;20045;-68
2022/09/10 10:32:56;;;;;;;9.48;6.10;;;18.90;99.90;;;;;;5031804;28;20079;-67
2022/09/10 10:35:31;;;;;;;9.77;7.10;;;19.00;99.90;;;;;;5033497;28;20034;-67
2022/09/10 10:38:26;;;;;;;32.53;8.52;;;18.90;99.90;;;;;;5033698;28;20068;-66
2022/09/10 10:41:11;;;;;;;8.50;6.22;;;19.00;99.90;;;;;;5033497;28;20416;-66
2022/09/10 10:44:07;;;;;;;11.65;7.07;;;19.20;99.90;;;;;;5033523;28;20044;-66
2022/09/10 10:47:20;;;;;;;12.93;6.63;;;19.10;99.90;;;;;;5033504;28;20068;-66
2022/09/10 10:50:02;;;;;;;7.80;6.18;;;19.10;99.90;;;;;;4972131;28;20065;-66
2022/09/10 10:52:50;;;;;;;9.90;7.65;;;19.30;99.90;;;;;;4971908;28;20051;-66
2022/09/10 10:55:38;;;;;;;15.50;6.05;;;19.20;99.90;;;;;;4971546;28;20057;-66
2022/09/10 10:58:21;;;;;;;12.05;7.43;;;19.30;99.90;;;;;;4972127;28;20046;-66
2022/09/10 11:00:56;;;;;;;10.02;5.35;;;19.40;99.90;;;;;;4972051;28;20497;-66
2022/09/10 11:03:34;;;;;;;11.35;4.32;;;19.30;99.90;;;;;;4971952;28;20436;-67
2022/09/10 11:06:06;;;;;;;13.73;5.07;;;19.40;99.90;;;;;;4971706;28;20049;-67
2022/09/10 11:08:41;;;;;;;12.55;5.18;;;19.30;99.90;;;;;;4971940;28;20047;-67
2022/09/10 11:11:26;;;;;;;13.82;4.55;;;19.40;99.90;;;;;;4971841;28;20540;-67
2022/09/10 11:14:05;;;;;;;6.45;4.57;;;19.40;99.90;;;;;;4971483;28;20056;-67
2022/09/10 11:16:42;;;;;;;9.85;4.85;;;19.40;99.90;;;;;;4955601;28;20108;-66
2022/09/10 11:19:26;;;;;;;8.35;4.70;;;19.60;99.90;;;;;;4971815;28;20158;-67
2022/09/10 11:22:13;;;;;;;6.57;4.00;;;19.70;99.90;;;;;;4971718;28;20410;-66
2022/09/10 11:25:21;;;;;;;8.15;4.18;;;19.70;99.90;;;;;;5024684;28;20059;-67
2022/09/10 11:28:13;;;;;;;6.00;4.47;;;19.80;99.90;;;;;;5031579;28;20071;-66
2022/09/10 11:30:43;;;;;;;37.90;9.85;;;19.80;99.90;;;;;;5028202;28;20037;-66
2022/09/10 11:33:35;;;;;;;37.88;8.98;;;19.80;99.90;;;;;;5032032;28;20651;-68
2022/09/10 11:36:10;;;;;;;12.43;6.77;;;19.70;99.90;;;;;;5024037;28;20447;-68
2022/09/10 11:38:41;;;;;;;25.85;7.32;;;19.80;99.90;;;;;;5031012;28;20045;-68
2022/09/10 11:41:12;;;;;;;12.90;6.80;;;19.80;99.90;;;;;;5032262;28;20045;-68
2022/09/10 11:43:51;;;;;;;32.50;8.47;;;19.80;99.90;;;;;;5031536;28;20128;-68
2022/09/10 11:46:22;;;;;;;25.35;6.82;;;19.90;99.90;;;;;;5032260;28;20095;-67
2022/09/10 11:49:02;;;;;;;16.77;6.65;;;20.00;99.90;;;;;;5032488;28;20391;-67
2022/09/10 11:51:32;;;;;;;23.35;6.53;;;20.00;99.90;;;;;;5032336;28;20084;-68
2022/09/10 11:53:59;;;;;;;11.35;5.97;;;19.90;99.90;;;;;;5031564;28;20486;-68
2022/09/10 11:56:49;;;;;;;10.52;5.45;;;19.90;99.90;;;;;;5032133;28;20060;-67
2022/09/10 11:59:20;;;;;;;14.52;5.40;;;19.90;99.90;;;;;;5032157;28;20050;-68
2022/09/10 12:02:31;;;;;;;8.95;5.78;;;19.90;99.90;;;;;;5032049;28;20046;-67
2022/09/10 12:05:10;;;;;;;10.15;6.20;;;19.80;99.90;;;;;;5031612;28;20578;-67
2022/09/10 12:07:56;;;;;;;9.18;5.45;;;19.80;99.90;;;;;;5032056;28;20041;-67
2022/09/10 12:10:30;;;;;;;9.50;5.50;;;19.80;99.90;;;;;;5031968;28;20041;-67
2022/09/10 12:12:57;;;;;;;8.68;5.40;;;19.80;99.90;;;;;;5030788;28;20049;-67
2022/09/10 12:15:33;;;;;;;11.23;5.28;;;19.80;99.90;;;;;;5030213;28;20116;-68
2022/09/10 12:18:10;;;;;;;30.23;6.60;;;19.80;99.90;;;;;;5030662;28;20048;-68
2022/09/10 12:20:51;;;;;;;15.68;5.00;;;19.70;99.90;;;;;;5031923;28;20041;-67
2022/09/10 12:23:24;;;;;;;10.13;4.80;;;19.80;99.90;;;;;;5030819;28;20056;-68
2022/09/10 12:26:04;;;;;;;7.60;4.10;;;19.80;99.90;;;;;;5031404;28;20048;-68
2022/09/10 12:28:42;;;;;;;7.38;4.63;;;19.80;99.90;;;;;;5031994;28;20044;-68
2022/09/10 12:31:13;;;;;;;6.45;4.90;;;19.80;99.90;;;;;;5031877;28;20045;-67
2022/09/10 12:33:42;;;;;;;7.50;4.60;;;19.80;99.90;;;;;;5013921;28;20044;-68
2022/09/10 12:36:13;;;;;;;8.68;5.53;;;19.80;99.90;;;;;;5031379;28;20120;-67
2022/09/10 12:39:16;;;;;;;9.32;5.43;;;19.70;99.90;;;;;;5030301;28;20171;-67
2022/09/10 12:41:41;;;;;;;8.60;5.55;;;19.80;99.90;;;;;;5031644;28;20052;-67
2022/09/10 12:44:29;;;;;;;7.68;5.00;;;19.70;99.90;;;;;;5030045;28;20041;-67
2022/09/10 12:47:16;;;;;;;7.68;5.03;;;19.80;99.90;;;;;;5031299;28;20126;-68
2022/09/10 12:49:56;;;;;;;13.50;5.82;;;19.80;99.90;;;;;;5031446;28;20041;-67
2022/09/10 12:52:33;;;;;;;12.15;5.50;;;19.80;99.90;;;;;;5031170;28;20041;-68